createdAt,value
2022-08-16T00:01:25.025Z,98701.56
2022-08-16T00:04:00.093Z,98704.91
2022-08-16T00:08:57.646Z,98711.72
2022-08-16T00:11:26.814Z,98718.81
2022-08-16T00:13:55.576Z,98713.75
2022-08-16T00:17:00.880Z,98718.31
2022-08-16T00:19:15.567Z,98707.53
2022-08-16T00:21:44.755Z,98713.34
2022-08-16T00:24:13.356Z,98701.00
2022-08-16T00:26:59.758Z,98705.72
2022-08-16T00:29:29.677Z,98698.56
2022-08-16T00:32:01.103Z,98692.66
2022-08-16T00:34:43.543Z,98700.22
2022-08-16T00:37:16.765Z,98704.28
2022-08-16T00:39:47.065Z,98704.53
2022-08-16T00:42:30.518Z,98701.97
2022-08-16T00:45:09.905Z,98698.75
2022-08-16T00:47:49.287Z,98698.75
2022-08-16T00:50:36.629Z,98694.28
2022-08-16T00:53:05.466Z,98699.84
2022-08-16T00:55:37.648Z,98701.75
2022-08-16T00:58:13.064Z,98698.50
2022-08-16T01:00:55.956Z,98706.59
2022-08-16T01:03:30.506Z,98711.66
2022-08-16T01:06:39.564Z,98717.66
2022-08-16T01:08:53.219Z,98727.91
2022-08-16T01:11:24.931Z,98737.88
2022-08-16T01:13:58.996Z,98743.75
2022-08-16T01:16:29.524Z,98759.00
2022-08-16T01:19:02.582Z,98772.50
2022-08-16T01:21:40.862Z,98772.81
2022-08-16T01:24:52.964Z,98776.97
2022-08-16T01:27:11.224Z,98785.38
2022-08-16T01:29:56.924Z,98776.13
2022-08-16T01:32:33.674Z,98774.00
2022-08-16T01:35:17.021Z,98785.25
2022-08-16T01:37:54.031Z,98771.09
2022-08-16T01:40:30.462Z,98785.28
2022-08-16T01:42:59.514Z,98799.69
2022-08-16T01:45:40.637Z,98780.31
2022-08-16T01:48:19.707Z,98774.69
2022-08-16T01:51:09.169Z,98785.72
2022-08-16T01:53:40.475Z,98800.34
2022-08-16T01:56:27.588Z,98772.22
2022-08-16T01:58:59.191Z,98774.94
2022-08-16T02:01:31.985Z,98802.97
2022-08-16T02:04:10.619Z,98781.31
2022-08-16T02:06:46.958Z,98778.00
2022-08-16T02:09:25.698Z,98789.00
2022-08-16T02:12:51.586Z,98792.28
2022-08-16T02:14:56.298Z,98782.16
2022-08-16T02:17:25.914Z,98788.47
2022-08-16T02:20:00.083Z,98784.44
2022-08-16T02:22:34.124Z,98797.78
2022-08-16T02:25:08.266Z,98775.09
2022-08-16T02:27:39.958Z,98791.19
2022-08-16T02:30:36.539Z,98814.59
2022-08-16T02:33:04.026Z,98800.50
2022-08-16T02:35:33.492Z,98778.38
2022-08-16T02:38:08.811Z,98778.78
2022-08-16T02:40:39.659Z,98787.28
2022-08-16T02:43:13.174Z,98807.25
2022-08-16T02:45:41.689Z,98776.16
2022-08-16T02:48:30.562Z,98783.28
2022-08-16T02:51:06.415Z,98785.25
2022-08-16T02:53:43.371Z,98786.31
2022-08-16T02:56:14.863Z,98789.88
2022-08-16T02:58:46.042Z,98800.88
2022-08-16T03:01:24.254Z,98796.88
2022-08-16T03:04:41.499Z,98795.44
2022-08-16T03:06:44.517Z,98798.63
2022-08-16T03:09:28.719Z,98812.06
2022-08-16T03:12:00.956Z,98792.59
2022-08-16T03:14:33.264Z,98795.78
2022-08-16T03:17:02.914Z,98818.06
2022-08-16T03:19:47.075Z,98823.41
2022-08-16T03:22:19.192Z,98795.63
2022-08-16T03:24:57.590Z,98791.22
2022-08-16T03:27:30.915Z,98805.09
2022-08-16T03:30:17.565Z,98822.44
2022-08-16T03:32:59.623Z,98811.47
2022-08-16T03:35:35.226Z,98817.59
2022-08-16T03:38:34.125Z,98811.81
2022-08-16T03:41:17.099Z,98827.16
2022-08-16T03:43:56.797Z,98812.16
2022-08-16T03:46:44.880Z,98825.56
2022-08-16T03:49:20.601Z,98815.13
2022-08-16T03:51:52.855Z,98816.44
2022-08-16T03:54:24.183Z,98815.72
2022-08-16T03:56:58.591Z,98817.38
2022-08-16T03:59:30.310Z,98818.00
2022-08-16T04:02:21.963Z,98834.84
2022-08-16T04:04:54.114Z,98822.44
2022-08-16T04:07:25.691Z,98830.50
2022-08-16T04:09:54.183Z,98825.81
2022-08-16T04:12:53.599Z,98831.97
2022-08-16T04:15:13.526Z,98826.63
2022-08-16T04:17:55.214Z,98841.16
2022-08-16T04:20:31.431Z,98828.75
2022-08-16T04:23:06.242Z,98821.63
2022-08-16T04:25:35.717Z,98819.06
2022-08-16T04:28:52.093Z,98826.28
2022-08-16T04:30:54.934Z,98831.59
2022-08-16T04:33:27.073Z,98824.38
2022-08-16T04:35:58.087Z,98831.47
2022-08-16T04:38:27.604Z,98822.13
2022-08-16T04:40:58.843Z,98831.25
2022-08-16T04:43:29.413Z,98839.41
2022-08-16T04:46:03.270Z,98839.47
2022-08-16T04:48:39.199Z,98833.00
2022-08-16T04:51:12.901Z,98833.50
2022-08-16T04:54:00.561Z,98834.53
2022-08-16T04:56:29.113Z,98836.19
2022-08-16T04:58:58.845Z,98836.88
2022-08-16T05:01:57.892Z,98836.28
2022-08-16T05:04:19.810Z,98850.59
2022-08-16T05:06:50.481Z,98847.03
2022-08-16T05:09:28.838Z,98842.78
2022-08-16T05:11:59.128Z,98847.75
2022-08-16T05:14:45.665Z,98847.28
2022-08-16T05:17:24.726Z,98838.63
2022-08-16T05:19:58.675Z,98855.13
2022-08-16T05:22:40.730Z,98874.25
2022-08-16T05:25:16.622Z,98850.00
2022-08-16T05:27:50.417Z,98858.00
2022-08-16T05:30:34.971Z,98868.41
2022-08-16T05:33:18.309Z,98851.97
2022-08-16T05:35:55.450Z,98859.41
2022-08-16T05:38:48.621Z,98864.94
2022-08-16T05:41:17.165Z,98848.47
2022-08-16T05:43:48.116Z,98854.00
2022-08-16T05:46:34.018Z,98858.31
2022-08-16T05:49:16.600Z,98846.16
2022-08-16T05:51:53.108Z,98854.41
2022-08-16T05:54:25.226Z,98850.84
2022-08-16T05:56:57.604Z,98859.28
2022-08-16T05:59:28.221Z,98864.31
2022-08-16T06:01:58.264Z,98866.16
2022-08-16T06:04:37.442Z,98859.56
2022-08-16T06:07:26.230Z,98857.84
2022-08-16T06:10:07.242Z,98869.81
2022-08-16T06:12:38.424Z,98880.72
2022-08-16T06:15:11.533Z,98875.41
2022-08-16T06:17:44.574Z,98894.19
2022-08-16T06:20:35.056Z,98886.19
2022-08-16T06:23:17.511Z,98877.97
2022-08-16T06:26:07.639Z,98890.69
2022-08-16T06:28:41.851Z,98881.31
2022-08-16T06:31:18.352Z,98889.38
2022-08-16T06:33:53.352Z,98901.97
2022-08-16T06:36:24.232Z,98902.22
2022-08-16T06:39:20.165Z,98896.91
2022-08-16T06:41:58.382Z,98905.06
2022-08-16T06:44:45.102Z,98913.38
2022-08-16T06:47:52.462Z,98894.63
2022-08-16T06:50:29.582Z,98898.16
2022-08-16T06:53:09.057Z,98913.72
2022-08-16T06:55:48.078Z,98901.22
2022-08-16T06:58:31.782Z,98911.28
2022-08-16T07:01:14.689Z,98914.84
2022-08-16T07:03:55.807Z,98916.00
2022-08-16T07:06:28.230Z,98895.50
2022-08-16T07:09:01.356Z,98905.69
2022-08-16T07:11:45.618Z,98907.06
2022-08-16T07:14:26.651Z,98910.56
2022-08-16T07:16:58.983Z,98915.16
2022-08-16T07:20:01.816Z,98905.66
2022-08-16T07:22:36.661Z,98897.03
2022-08-16T07:25:15.961Z,98909.13
2022-08-16T07:27:49.643Z,98912.09
2022-08-16T07:30:39.420Z,98926.50
2022-08-16T07:33:15.850Z,98929.16
2022-08-16T07:35:49.518Z,98919.34
2022-08-16T07:38:20.371Z,98908.84
2022-08-16T07:41:10.245Z,98919.53
2022-08-16T07:43:46.118Z,98910.03
2022-08-16T07:46:37.541Z,98910.75
2022-08-16T07:49:18.205Z,98913.19
2022-08-16T07:51:47.192Z,98912.28
2022-08-16T07:54:20.771Z,98907.47
2022-08-16T07:56:54.153Z,98906.00
2022-08-16T07:59:26.164Z,98903.31
2022-08-16T08:02:12.210Z,98908.34
2022-08-16T08:04:41.663Z,98905.19
2022-08-16T08:07:12.317Z,98902.13
2022-08-16T08:09:43.262Z,98917.31
2022-08-16T08:12:32.126Z,98915.72
2022-08-16T08:15:02.255Z,98908.75
2022-08-16T08:17:42.978Z,98924.50
2022-08-16T08:20:28.789Z,98931.34
2022-08-16T08:23:01.559Z,98917.75
2022-08-16T08:25:55.123Z,98918.56
2022-08-16T08:28:27.460Z,98921.06
2022-08-16T08:31:09.208Z,98912.19
2022-08-16T08:33:47.306Z,98923.66
2022-08-16T08:36:32.951Z,98921.13
2022-08-16T08:39:13.215Z,98913.38
2022-08-16T08:41:43.756Z,98924.66
2022-08-16T08:44:28.612Z,98922.19
2022-08-16T08:47:07.884Z,98919.56
2022-08-16T08:49:46.031Z,98933.56
2022-08-16T08:52:34.890Z,98925.72
2022-08-16T08:55:12.736Z,98939.53
2022-08-16T08:57:45.246Z,98937.56
2022-08-16T09:00:34.663Z,98934.59
2022-08-16T09:03:21.651Z,98939.38
2022-08-16T09:05:51.865Z,98938.94
2022-08-16T09:08:22.508Z,98928.63
2022-08-16T09:11:03.132Z,98931.50
2022-08-16T09:13:34.180Z,98944.03
2022-08-16T09:16:04.432Z,98942.06
2022-08-16T09:18:35.640Z,98935.75
2022-08-16T09:21:09.353Z,98931.50
2022-08-16T09:23:38.433Z,98927.78
2022-08-16T09:26:44.398Z,98935.03
2022-08-16T09:29:15.639Z,98935.38
2022-08-16T09:31:53.364Z,98928.25
2022-08-16T09:34:23.539Z,98930.69
2022-08-16T09:36:54.550Z,98931.09
2022-08-16T09:39:23.152Z,98923.47
2022-08-16T09:41:54.353Z,98917.25
2022-08-16T09:45:09.100Z,98919.09
2022-08-16T09:47:13.220Z,98915.97
2022-08-16T09:49:42.823Z,98923.56
2022-08-16T09:52:19.418Z,98921.38
2022-08-16T09:54:50.738Z,98924.63
2022-08-16T09:57:20.052Z,98910.56
2022-08-16T09:59:56.267Z,98914.72
2022-08-16T10:02:27.732Z,98912.75
2022-08-16T10:05:01.970Z,98915.25
2022-08-16T10:07:44.122Z,98909.03
2022-08-16T10:10:30.792Z,98912.66
2022-08-16T10:13:16.390Z,98917.84
2022-08-16T10:15:54.994Z,98907.34
2022-08-16T10:18:54.032Z,98913.19
2022-08-16T10:21:17.075Z,98913.47
2022-08-16T10:23:48.667Z,98912.91
2022-08-16T10:27:20.420Z,98906.31
2022-08-16T10:29:06.806Z,98921.72
2022-08-16T10:31:44.294Z,98921.69
2022-08-16T10:34:31.331Z,98905.78
2022-08-16T10:37:02.736Z,98902.16
2022-08-16T10:39:41.412Z,98901.03
2022-08-16T10:42:10.654Z,98904.66
2022-08-16T10:44:42.401Z,98910.63
2022-08-16T10:47:11.671Z,98913.13
2022-08-16T10:49:40.279Z,98915.31
2022-08-16T10:52:18.829Z,98908.97
2022-08-16T10:54:59.181Z,98908.41
2022-08-16T10:57:33.064Z,98910.84
2022-08-16T11:00:04.511Z,98913.91
2022-08-16T11:02:58.248Z,98916.75
2022-08-16T11:05:21.571Z,98916.13
2022-08-16T11:07:53.480Z,98915.59
2022-08-16T11:19:05.438Z,98920.00
2022-08-16T11:22:11.156Z,98925.47
2022-08-16T11:24:42.711Z,98919.69
2022-08-16T11:27:19.742Z,98912.66
2022-08-16T11:29:52.227Z,98909.28
2022-08-16T11:32:22.765Z,98912.28
2022-08-16T11:35:10.543Z,98901.50
2022-08-16T11:40:38.959Z,98916.53
2022-08-16T11:43:13.060Z,98915.53
2022-08-16T11:45:54.154Z,98908.31
2022-08-16T11:48:24.644Z,98913.91
2022-08-16T11:50:53.009Z,98916.81
2022-08-16T11:53:22.111Z,98905.25
2022-08-16T11:55:54.871Z,98913.06
2022-08-16T11:58:24.587Z,98912.41
2022-08-16T12:00:55.009Z,98901.94
2022-08-16T12:03:34.211Z,98897.19
2022-08-16T12:06:10.842Z,98890.78
2022-08-16T12:08:53.332Z,98894.50
2022-08-16T12:11:27.029Z,98897.69
2022-08-16T12:13:59.853Z,98891.53
2022-08-16T12:16:31.013Z,98884.25
2022-08-16T12:19:02.731Z,98883.28
2022-08-16T12:21:57.624Z,98887.56
2022-08-16T12:24:21.182Z,98879.72
2022-08-16T12:26:50.764Z,98888.19
2022-08-16T12:29:23.066Z,98886.97
2022-08-16T12:32:26.620Z,98875.06
2022-08-16T12:34:50.748Z,98882.00
2022-08-16T12:37:24.284Z,98873.75
2022-08-16T12:39:56.167Z,98879.63
2022-08-16T12:42:34.471Z,98866.38
2022-08-16T12:45:05.000Z,98869.09
2022-08-16T12:47:50.418Z,98883.84
2022-08-16T12:50:20.240Z,98881.16
2022-08-16T12:52:53.324Z,98870.75
2022-08-16T12:55:23.895Z,98880.63
2022-08-16T12:58:04.033Z,98889.88
2022-08-16T13:00:43.554Z,98870.56
2022-08-16T13:03:12.873Z,98878.00
2022-08-16T13:05:47.723Z,98876.53
2022-08-16T13:08:27.437Z,98869.72
2022-08-16T13:10:59.480Z,98879.59
2022-08-16T13:13:29.761Z,98862.06
2022-08-16T13:16:03.626Z,98880.75
2022-08-16T13:18:35.605Z,98880.03
2022-08-16T13:21:04.905Z,98870.31
2022-08-16T13:23:34.050Z,98856.97
2022-08-16T13:26:05.153Z,98864.13
2022-08-16T13:28:37.515Z,98854.59
2022-08-16T13:31:08.021Z,98862.81
2022-08-16T13:33:37.848Z,98857.69
2022-08-16T13:36:17.119Z,98866.72
2022-08-16T13:38:57.578Z,98871.03
2022-08-16T13:41:30.346Z,98850.28
2022-08-16T13:44:01.244Z,98858.09
2022-08-16T13:46:33.342Z,98863.63
2022-08-16T13:49:02.150Z,98862.97
2022-08-16T13:51:31.144Z,98851.03
2022-08-16T13:54:03.957Z,98852.22
2022-08-16T13:56:38.660Z,98846.91
2022-08-16T13:59:13.959Z,98865.81
2022-08-16T14:01:55.026Z,98855.81
2022-08-16T14:04:26.231Z,98859.84
2022-08-16T14:06:56.283Z,98845.28
2022-08-16T14:09:25.116Z,98844.47
2022-08-16T14:11:55.942Z,98856.16
2022-08-16T14:14:29.233Z,98854.44
2022-08-16T14:16:59.007Z,98846.84
2022-08-16T14:19:29.587Z,98845.91
2022-08-16T14:22:13.970Z,98854.59
2022-08-16T14:24:45.314Z,98834.75
2022-08-16T14:27:17.951Z,98833.06
2022-08-16T14:29:49.419Z,98825.72
2022-08-16T14:32:27.074Z,98826.63
2022-08-16T14:35:03.283Z,98829.75
2022-08-16T14:37:32.627Z,98837.47
2022-08-16T14:40:01.241Z,98829.75
2022-08-16T14:42:32.316Z,98836.97
2022-08-16T14:45:02.175Z,98829.53
2022-08-16T14:47:31.591Z,98839.03
2022-08-16T14:50:05.823Z,98835.50
2022-08-16T14:55:23.274Z,98825.59
2022-08-16T14:57:54.433Z,98813.63
2022-08-16T15:00:33.842Z,98830.38
2022-08-16T15:03:06.976Z,98827.28
2022-08-16T15:05:38.641Z,98824.06
2022-08-16T15:08:07.544Z,98822.59
2022-08-16T15:10:37.283Z,98834.84
2022-08-16T15:13:09.511Z,98825.84
2022-08-16T15:15:39.878Z,98817.16
2022-08-16T15:18:12.291Z,98825.41
2022-08-16T15:20:41.370Z,98819.31
2022-08-16T15:23:10.358Z,98818.78
2022-08-16T15:25:41.460Z,98821.78
2022-08-16T15:28:30.792Z,98824.38
2022-08-16T15:33:33.320Z,98820.72
2022-08-16T15:36:05.746Z,98815.66
2022-08-16T15:39:02.254Z,98819.56
2022-08-16T15:41:58.321Z,98819.47
2022-08-16T15:44:42.707Z,98816.34
2022-08-16T15:47:25.816Z,98822.56
2022-08-16T15:49:55.652Z,98816.75
2022-08-16T15:52:30.409Z,98822.38
2022-08-16T15:55:00.376Z,98812.44
2022-08-16T15:57:41.294Z,98816.06
2022-08-16T16:00:14.984Z,98814.50
2022-08-16T16:02:46.998Z,98825.44
2022-08-16T16:05:19.635Z,98816.75
2022-08-16T16:07:56.857Z,98822.56
2022-08-16T16:10:37.450Z,98816.97
2022-08-16T16:13:10.779Z,98821.78
2022-08-16T16:15:40.659Z,98818.22
2022-08-16T16:18:12.104Z,98809.28
2022-08-16T16:20:43.801Z,98825.16
2022-08-16T16:23:12.499Z,98815.66
2022-08-16T16:25:44.011Z,98810.81
2022-08-16T16:29:06.733Z,98829.47
2022-08-16T16:31:04.867Z,98817.69
2022-08-16T16:33:41.089Z,98821.81
2022-08-16T16:36:14.795Z,98816.81
2022-08-16T16:38:46.343Z,98814.78
2022-08-16T16:41:16.546Z,98813.88
2022-08-16T16:43:45.909Z,98830.28
2022-08-16T16:46:41.091Z,98827.84
2022-08-16T16:49:08.834Z,98820.78
2022-08-16T16:51:47.100Z,98833.84
2022-08-16T16:54:28.005Z,98841.31
2022-08-16T16:56:57.816Z,98836.38
2022-08-16T16:59:28.491Z,98837.34
2022-08-16T17:02:38.504Z,98836.56
2022-08-16T17:04:47.791Z,98838.53
2022-08-16T17:07:16.840Z,98836.56
2022-08-16T17:09:45.782Z,98835.09
2022-08-16T17:12:24.528Z,98838.66
2022-08-16T17:14:54.032Z,98839.41
2022-08-16T17:17:22.658Z,98836.72
2022-08-16T17:19:54.180Z,98843.06
2022-08-16T17:22:23.849Z,98853.38
2022-08-16T17:25:01.814Z,98845.78
2022-08-16T17:27:33.176Z,98839.22
2022-08-16T17:30:15.606Z,98845.16
2022-08-16T17:32:50.702Z,98845.72
2022-08-16T17:35:34.267Z,98851.59
2022-08-16T17:38:06.311Z,98850.69
2022-08-16T17:40:47.399Z,98852.47
2022-08-16T17:43:25.878Z,98852.09
2022-08-16T17:45:55.916Z,98851.59
2022-08-16T17:48:24.118Z,98860.16
2022-08-16T17:50:54.716Z,98860.41
2022-08-16T17:53:23.497Z,98867.28
2022-08-16T17:55:52.486Z,98874.06
2022-08-16T17:58:23.459Z,98878.78
2022-08-16T18:00:55.027Z,98877.72
2022-08-16T18:04:02.193Z,98879.34
2022-08-16T18:06:16.816Z,98882.09
2022-08-16T18:08:48.310Z,98880.75
2022-08-16T18:11:18.298Z,98878.91
2022-08-16T18:13:46.923Z,98886.31
2022-08-16T18:16:17.252Z,98886.09
2022-08-16T18:18:46.142Z,98883.13
2022-08-16T18:21:33.959Z,98886.09
2022-08-16T18:24:02.226Z,98887.44
2022-08-16T18:26:30.760Z,98886.38
2022-08-16T18:28:58.897Z,98885.59
2022-08-16T18:31:27.236Z,98889.72
2022-08-16T18:33:55.625Z,98897.44
2022-08-16T18:36:28.500Z,98896.84
2022-08-16T18:38:56.708Z,98903.50
2022-08-16T18:41:26.374Z,98895.81
2022-08-16T18:44:25.485Z,98897.72
2022-08-16T18:46:44.545Z,98898.53
2022-08-16T18:49:13.123Z,98899.41
2022-08-16T18:51:45.932Z,98903.22
2022-08-16T18:54:16.384Z,98900.22
2022-08-16T18:56:56.073Z,98899.72
2022-08-16T18:59:28.094Z,98906.31
2022-08-16T19:01:59.994Z,98907.16
2022-08-16T19:04:56.754Z,98904.13
2022-08-16T19:07:30.443Z,98908.22
2022-08-16T19:10:00.480Z,98912.06
2022-08-16T19:12:37.714Z,98914.56
2022-08-16T19:15:13.417Z,98914.56
2022-08-16T19:17:43.269Z,98920.06
2022-08-16T19:20:13.130Z,98920.34
2022-08-16T19:25:46.712Z,98917.31
2022-08-16T19:28:49.597Z,98921.69
2022-08-16T19:31:12.788Z,98924.88
2022-08-16T19:33:53.270Z,98931.09
2022-08-16T19:36:31.020Z,98923.78
2022-08-16T19:39:04.521Z,98928.16
2022-08-16T19:41:35.426Z,98932.22
2022-08-16T19:44:04.268Z,98930.56
2022-08-16T19:46:32.698Z,98934.97
2022-08-16T19:49:01.570Z,98937.34
2022-08-16T19:51:31.221Z,98931.50
2022-08-16T19:53:59.863Z,98928.06
2022-08-16T19:56:29.759Z,98935.19
2022-08-16T20:01:49.639Z,98946.66
2022-08-16T20:04:18.944Z,98948.16
2022-08-16T20:06:47.562Z,98945.44
2022-08-16T20:09:16.455Z,98946.44
2022-08-16T20:11:47.094Z,98942.91
2022-08-16T20:14:24.345Z,98949.44
2022-08-16T20:16:56.709Z,98941.75
2022-08-16T20:19:25.635Z,98940.31
2022-08-16T20:21:56.712Z,98943.44
2022-08-16T20:24:35.222Z,98944.19
2022-08-16T20:27:07.486Z,98949.38
2022-08-16T20:29:35.888Z,98947.81
2022-08-16T20:32:05.761Z,98947.28
2022-08-16T20:34:34.370Z,98950.19
2022-08-16T20:37:02.658Z,98944.22
2022-08-16T20:39:30.942Z,98945.31
2022-08-16T20:41:59.394Z,98955.75
2022-08-16T20:44:29.118Z,98951.91
2022-08-16T20:46:57.272Z,98951.81
2022-08-16T20:49:25.453Z,98948.94
2022-08-16T20:51:57.394Z,98958.88
2022-08-16T20:54:28.118Z,98963.63
2022-08-16T20:56:56.840Z,98967.69
2022-08-16T20:59:25.485Z,98970.91
2022-08-16T21:01:55.534Z,98965.94
2022-08-16T21:04:27.432Z,98958.81
2022-08-16T21:06:58.429Z,98956.41
2022-08-16T21:09:28.937Z,98957.38
2022-08-16T21:12:01.653Z,98963.34
2022-08-16T21:14:34.247Z,98964.72
2022-08-16T21:17:08.500Z,98965.97
2022-08-16T21:19:37.166Z,98962.06
2022-08-16T21:22:16.462Z,98966.94
2022-08-16T21:24:46.313Z,98966.75
2022-08-16T21:27:15.238Z,98961.97
2022-08-16T21:29:46.331Z,98965.53
2022-08-16T21:32:20.118Z,98967.00
2022-08-16T21:35:08.025Z,98967.53
2022-08-16T21:37:36.289Z,98971.78
2022-08-16T21:40:06.452Z,98980.06
2022-08-16T21:42:36.538Z,98980.13
2022-08-16T21:45:08.105Z,98967.31
2022-08-16T21:47:37.837Z,98973.47
2022-08-16T21:50:08.934Z,98968.69
2022-08-16T21:52:40.794Z,98977.91
2022-08-16T21:55:10.198Z,98973.41
2022-08-16T21:57:38.976Z,98978.84
2022-08-16T22:00:12.807Z,98976.00
2022-08-16T22:02:50.555Z,98981.56
2022-08-16T22:05:19.400Z,98976.63
2022-08-16T22:07:47.713Z,98971.81
2022-08-16T22:11:07.253Z,98972.09
2022-08-16T22:13:06.001Z,98973.56
2022-08-16T22:15:34.228Z,98971.25
2022-08-16T22:18:04.155Z,98973.75
2022-08-16T22:20:32.388Z,98967.38
2022-08-16T22:23:06.702Z,98981.47
2022-08-16T22:25:38.360Z,98978.47
2022-08-16T22:28:06.935Z,98987.53
2022-08-16T22:30:35.156Z,98984.91
2022-08-16T22:33:09.045Z,98980.81
2022-08-16T22:35:42.716Z,98981.50
2022-08-16T22:38:56.048Z,98981.97
2022-08-16T22:41:04.369Z,98983.69
2022-08-16T22:43:32.821Z,98988.25
2022-08-16T22:46:01.184Z,98985.06
2022-08-16T22:48:30.857Z,98979.59
2022-08-16T22:51:08.016Z,98981.50
2022-08-16T22:53:37.423Z,98986.88
2022-08-16T22:56:06.315Z,98980.28
2022-08-16T22:58:37.133Z,98980.78
2022-08-16T23:01:13.039Z,98979.41
2022-08-16T23:03:42.973Z,98976.22
2022-08-16T23:06:13.024Z,98975.38
2022-08-16T23:08:43.090Z,98974.38
2022-08-16T23:11:13.199Z,98973.22
2022-08-16T23:13:52.546Z,98969.91
2022-08-16T23:16:23.398Z,98968.13
2022-08-16T23:19:01.583Z,98968.84
2022-08-16T23:21:29.970Z,98974.88
2022-08-16T23:23:58.400Z,98977.09
2022-08-16T23:26:44.673Z,98970.66
2022-08-16T23:29:22.475Z,98958.19
2022-08-16T23:31:54.335Z,98966.03
2022-08-16T23:34:23.892Z,98958.22
2022-08-16T23:36:52.156Z,98963.91
2022-08-16T23:39:20.559Z,98969.16
2022-08-16T23:41:48.792Z,98964.41
2022-08-16T23:44:56.089Z,98966.16
2022-08-16T23:47:06.500Z,98956.00
2022-08-16T23:50:01.529Z,98957.88
2022-08-16T23:52:53.370Z,98963.56
2022-08-16T23:55:13.043Z,98960.84
2022-08-16T23:57:41.218Z,98973.78
